Time;durP1;ratioP1;P1;durP2;ratioP2;P2;SDS_P1;SDS_P2;PMS_P1;PMS_P2;Temp;Humidity;BMP_temperature;BMP_pressure;BME280_temperature;BME280_humidity;BME280_pressure;Samples;Min_cycle;Max_cycle;Signal;HPM_P1;HPM_P2
2021/05/10 00:00:44;;;;;;;3.13;1.10;;;16.20;1.40;;;17.40;50.32;94547.14;640395;221;24497;-70
2021/05/10 00:03:13;;;;;;;1.57;1.47;;;16.80;1.40;;;17.80;48.84;94544.27;640229;220;23565;-70
2021/05/10 00:05:42;;;;;;;1.50;1.50;;;17.20;1.40;;;18.19;47.65;94550.50;640881;221;23526;-71
2021/05/10 00:08:11;;;;;;;1.07;0.97;;;17.40;1.40;;;18.23;47.27;94545.41;648993;215;31526;-71
2021/05/10 00:10:41;;;;;;;1.03;1.03;;;17.30;1.40;;;18.23;47.39;94543.20;668498;211;23494;-71
2021/05/10 00:13:12;;;;;;;2.43;1.50;;;17.30;1.40;;;18.33;46.66;94541.91;668587;211;26936;-71
2021/05/10 00:15:38;;;;;;;1.30;1.20;;;17.40;1.40;;;18.24;47.09;94544.87;668479;211;23419;-71
2021/05/10 00:18:07;;;;;;;1.03;1.03;;;17.20;1.40;;;18.31;46.52;94545.94;657479;211;23477;-71
2021/05/10 00:20:37;;;;;;;1.20;1.10;;;17.30;1.40;;;18.13;47.07;94544.28;656833;215;23481;-71
2021/05/10 00:23:06;;;;;;;1.37;1.03;;;17.00;1.40;;;17.85;47.93;94539.14;654443;215;23822;-72
2021/05/10 00:25:35;;;;;;;1.40;1.30;;;16.60;1.40;;;17.65;48.52;94542.52;653705;215;28441;-72
2021/05/10 00:28:04;;;;;;;1.50;1.40;;;16.40;1.40;;;17.41;49.73;94543.97;635074;224;23602;-71
2021/05/10 00:30:33;;;;;;;1.30;1.20;;;16.10;1.40;;;16.97;53.08;94544.32;636508;221;32025;-71
2021/05/10 00:35:54;;;;;;;1.60;1.40;;;14.90;1.40;;;16.36;55.62;94541.32;619579;226;31985;-70
2021/05/10 00:38:23;;;;;;;1.30;1.20;;;14.70;1.40;;;16.07;56.80;94540.09;616522;229;27874;-70
2021/05/10 00:40:52;;;;;;;1.77;1.67;;;14.40;1.40;;;15.80;57.20;94545.38;615838;230;26782;-70
2021/05/10 00:43:21;;;;;;;1.50;1.10;;;14.20;1.40;;;15.64;57.15;94544.94;615014;230;24665;-71
2021/05/10 00:45:50;;;;;;;2.67;1.47;;;14.10;1.40;;;15.48;57.89;94548.60;615874;230;24567;-70
2021/05/10 00:48:19;;;;;;;1.33;1.23;;;14.00;1.40;;;15.34;59.85;94546.42;611110;229;32732;-71
2021/05/10 00:53:22;;;;;;;1.10;1.00;;;14.10;1.40;;;15.53;57.00;94552.61;647024;216;31572;-71
2021/05/10 00:58:26;;;;;;;1.73;1.10;;;14.40;1.40;;;15.56;55.82;94547.80;647841;216;31591;-70
2021/05/10 01:03:29;;;;;;;2.00;1.20;;;14.50;1.40;;;15.38;58.36;94547.85;646112;212;32249;-69
2021/05/10 01:05:58;;;;;;;1.50;1.47;;;14.00;1.40;;;15.08;59.69;94547.64;642415;221;24497;-70
2021/05/10 01:08:27;;;;;;;1.80;1.70;;;13.60;1.40;;;14.79;61.34;94546.44;640502;221;25602;-69
2021/05/10 01:10:56;;;;;;;1.60;1.50;;;13.30;1.40;;;14.71;60.44;94545.77;640050;221;24530;-70
2021/05/10 01:13:25;;;;;;;1.33;1.33;;;13.30;1.40;;;14.73;60.78;94550.36;640758;220;23621;-70
2021/05/10 01:15:54;;;;;;;1.67;1.57;;;13.40;1.40;;;14.84;59.70;94545.34;641348;221;23521;-70
2021/05/10 01:18:24;;;;;;;1.60;1.50;;;13.70;1.40;;;14.79;60.05;94544.59;639111;223;23546;-70
2021/05/10 01:20:53;;;;;;;1.37;1.27;;;13.60;1.40;;;14.61;61.72;94546.31;636805;223;25135;-70
2021/05/10 01:25:56;;;;;;;1.30;1.20;;;12.70;1.40;;;14.13;64.31;94536.55;646610;216;31536;-71
2021/05/10 01:28:25;;;;;;;1.40;1.30;;;12.30;1.40;;;13.77;68.25;94537.53;640191;221;24507;-71
2021/05/10 01:30:54;;;;;;;1.70;1.60;;;12.10;1.40;;;13.97;64.70;94540.59;641731;220;23514;-71
2021/05/10 01:35:51;;;;;;;1.27;1.17;;;12.50;1.40;;;13.70;66.82;94531.09;646805;216;31541;-71
2021/05/10 01:38:20;;;;;;;1.67;1.57;;;12.20;1.40;;;13.57;68.41;94532.47;640627;220;23481;-70
2021/05/10 01:40:50;;;;;;;2.00;1.43;;;12.00;1.40;;;13.44;69.26;94537.47;641105;221;24682;-71
2021/05/10 01:43:19;;;;;;;1.50;1.40;;;11.90;1.40;;;13.34;70.44;94540.86;639675;221;24780;-71
2021/05/10 01:45:48;;;;;;;1.80;1.70;;;11.70;1.40;;;13.26;70.32;94543.21;640898;221;28959;-70
2021/05/10 01:48:17;;;;;;;1.37;1.37;;;11.60;1.40;;;13.21;70.62;94538.81;641815;221;24562;-71
2021/05/10 01:50:46;;;;;;;1.80;1.70;;;11.60;1.40;;;13.06;72.92;94540.69;641208;221;24491;-71
2021/05/10 01:55:52;;;;;;;1.90;1.33;;;11.30;1.40;;;13.03;72.24;94542.80;646792;216;31539;-71
2021/05/10 01:58:21;;;;;;;1.70;1.60;;;11.20;1.40;;;13.26;69.26;94542.39;640232;221;24940;-70
2021/05/10 02:00:50;;;;;;;1.40;1.30;;;11.90;1.40;;;12.99;76.46;94532.48;648542;220;24509;-71
2021/05/10 02:03:19;;;;;;;1.60;1.50;;;11.60;1.40;;;13.22;70.09;94538.94;670592;211;24407;-70
2021/05/10 02:05:48;;;;;;;1.50;1.40;;;12.20;1.40;;;14.03;63.94;94539.59;669883;211;24433;-70
2021/05/10 02:08:17;;;;;;;1.70;1.60;;;13.40;1.40;;;14.23;62.68;94537.19;671278;211;24428;-70
2021/05/10 02:10:46;;;;;;;1.40;1.30;;;13.50;1.40;;;14.35;61.85;94539.25;669241;211;26894;-71
2021/05/10 02:13:17;;;;;;;2.00;1.77;;;13.50;1.40;;;14.50;60.78;94540.41;667472;211;24429;-70
2021/05/10 02:15:46;;;;;;;1.80;1.60;;;13.60;1.40;;;14.54;60.65;94541.67;668973;211;31927;-70
2021/05/10 02:18:15;;;;;;;2.40;1.50;;;13.50;1.40;;;14.59;59.80;94540.08;669804;211;24422;-70
2021/05/10 02:20:44;;;;;;;2.50;1.10;;;13.50;1.40;;;14.51;60.72;94540.08;637773;220;31921;-70
2021/05/10 02:23:13;;;;;;;1.30;1.20;;;13.40;1.40;;;14.31;60.83;94537.37;649887;219;24487;-72
2021/05/10 02:25:43;;;;;;;1.27;1.17;;;13.00;1.40;;;14.33;60.79;94543.91;649139;216;31522;-72
2021/05/10 02:28:12;;;;;;;1.50;1.40;;;13.00;1.40;;;14.30;61.25;94544.77;667797;211;24413;-71
2021/05/10 02:30:41;;;;;;;1.70;1.10;;;12.90;1.40;;;14.25;63.19;94537.15;664458;211;31441;-70
2021/05/10 02:35:51;;;;;;;1.67;1.17;;;12.50;1.40;;;14.12;62.26;94539.73;647875;216;31609;-70
2021/05/10 02:38:20;;;;;;;1.60;1.50;;;12.80;1.40;;;14.21;62.15;94527.53;642107;221;23488;-71
2021/05/10 02:40:49;;;;;;;1.80;1.70;;;13.00;1.40;;;13.78;68.56;94533.28;655709;216;25971;-71
2021/05/10 02:43:18;;;;;;;1.83;1.40;;;12.10;1.40;;;13.86;63.49;94523.72;669388;211;23453;-70
2021/05/10 02:45:47;;;;;;;2.37;1.47;;;12.40;1.40;;;13.61;68.62;94530.20;669587;211;24818;-71
2021/05/10 02:48:16;;;;;;;2.73;1.80;;;12.00;1.40;;;13.70;66.74;94533.75;669853;211;25815;-71
2021/05/10 02:50:45;;;;;;;2.20;1.50;;;12.30;1.40;;;13.63;65.44;94529.30;669901;211;24439;-71
2021/05/10 02:53:14;;;;;;;2.77;2.20;;;12.20;1.40;;;13.57;67.94;94520.86;670104;211;24676;-71
2021/05/10 02:55:43;;;;;;;2.00;1.90;;;12.00;1.40;;;13.62;65.96;94519.21;669019;211;24498;-72
2021/05/10 02:58:12;;;;;;;2.00;1.90;;;12.20;1.40;;;13.67;65.18;94524.55;668218;211;24408;-72
2021/05/10 03:00:42;;;;;;;1.30;1.30;;;12.20;1.40;;;13.61;67.57;94519.98;667848;211;27613;-71
2021/05/10 03:03:11;;;;;;;2.50;1.53;;;12.00;1.40;;;13.44;67.98;94519.58;654082;216;24539;-72
2021/05/10 03:08:14;;;;;;;2.08;1.60;;;11.60;1.40;;;13.28;69.00;94510.77;646541;212;31549;-71
2021/05/10 03:10:43;;;;;;;1.67;1.57;;;11.50;1.40;;;13.12;73.05;94509.86;641219;221;23463;-70
2021/05/10 03:13:12;;;;;;;1.63;1.53;;;11.40;1.40;;;13.08;71.43;94508.58;641655;220;25622;-70
2021/05/10 03:15:41;;;;;;;1.30;1.20;;;11.40;1.40;;;13.11;68.87;94510.92;634335;219;31709;-71
2021/05/10 03:18:10;;;;;;;1.70;1.60;;;11.50;1.40;;;13.06;70.61;94512.36;629703;220;23622;-71
2021/05/10 03:20:40;;;;;;;1.80;1.70;;;11.50;1.40;;;13.09;71.28;94515.97;628394;225;24537;-71
2021/05/10 03:23:09;;;;;;;2.30;2.20;;;11.60;1.40;;;13.13;69.43;94520.86;628145;225;24577;-70
2021/05/10 03:25:38;;;;;;;2.23;1.97;;;11.60;1.40;;;13.26;68.61;94526.80;627982;224;24535;-71
2021/05/10 03:28:07;;;;;;;2.33;1.70;;;12.00;1.40;;;13.27;68.55;94527.25;628157;225;24662;-71
2021/05/10 03:30:36;;;;;;;1.43;1.33;;;12.10;1.40;;;13.26;68.90;94534.47;634760;224;24547;-70
2021/05/10 03:35:51;;;;;;;3.25;1.40;;;12.30;1.40;;;13.38;68.77;94537.04;647613;212;32205;-70
2021/05/10 03:38:20;;;;;;;2.27;1.70;;;12.20;1.40;;;13.25;70.02;94534.99;641819;220;23477;-71
2021/05/10 03:40:49;;;;;;;2.10;2.00;;;11.90;1.40;;;13.26;69.55;94532.02;641298;221;24509;-70
2021/05/10 03:43:18;;;;;;;1.53;1.43;;;11.90;1.40;;;13.55;66.37;94524.42;639755;221;24512;-70
2021/05/10 03:45:47;;;;;;;1.43;1.30;;;12.50;1.40;;;13.71;65.17;94524.44;634904;220;31747;-71
2021/05/10 03:50:51;;;;;;;2.00;1.40;;;12.50;1.40;;;13.78;65.64;94527.00;645870;216;31539;-70
2021/05/10 03:53:20;;;;;;;1.58;1.40;;;12.40;1.40;;;13.73;67.87;94523.39;635439;221;32031;-70
2021/05/10 03:55:49;;;;;;;2.15;1.45;;;12.10;1.40;;;13.72;66.82;94519.13;635302;220;31782;-70
2021/05/10 03:58:18;;;;;;;2.08;1.50;;;12.00;1.40;;;13.68;68.12;94526.80;635366;220;31778;-71
2021/05/10 04:00:53;;;;;;;1.40;1.30;;;11.90;1.40;;;13.56;69.57;94522.91;634339;220;33522;-72
2021/05/10 04:03:26;;;;;;;2.53;2.00;;;11.70;1.40;;;13.42;71.65;94517.20;640145;221;23531;-71
2021/05/10 04:06:08;;;;;;;1.50;1.40;;;11.60;1.40;;;13.47;67.38;94517.19;640753;221;24635;-71
2021/05/10 04:11:02;;;;;;;1.57;1.47;;;12.10;1.40;;;13.78;68.07;94530.55;669891;211;24463;-72
2021/05/10 04:16:00;;;;;;;1.70;1.60;;;12.00;1.40;;;13.79;66.80;94538.36;667941;211;24457;-72
2021/05/10 04:18:29;;;;;;;2.13;2.03;;;12.20;1.40;;;13.71;70.60;94538.25;634539;224;24620;-72
2021/05/10 04:24:05;;;;;;;2.70;1.40;;;12.20;1.40;;;13.75;71.10;94516.20;645660;216;31552;-70
2021/05/10 04:26:34;;;;;;;2.50;1.80;;;12.00;1.40;;;13.81;72.29;94519.36;641991;220;23504;-71
2021/05/10 04:29:03;;;;;;;1.83;1.73;;;12.10;1.40;;;13.89;71.27;94520.37;629042;223;24492;-72
2021/05/10 04:31:32;;;;;;;2.50;2.30;;;12.10;1.40;;;13.91;73.41;94524.02;640331;221;24582;-71
2021/05/10 04:35:51;;;;;;;2.10;1.50;;;12.20;1.40;;;14.14;71.37;94538.75;645239;215;31651;-71
2021/05/10 04:38:20;;;;;;;2.00;1.90;;;12.30;1.40;;;14.18;67.85;94542.81;641146;220;23481;-70
2021/05/10 04:40:49;;;;;;;1.70;1.60;;;12.50;1.40;;;14.38;64.77;94547.68;640945;221;24516;-70
2021/05/10 04:43:18;;;;;;;2.90;1.90;;;12.80;1.40;;;14.36;69.77;94544.20;640116;220;24494;-72
2021/05/10 04:45:47;;;;;;;2.20;1.40;;;12.80;1.40;;;14.40;69.84;94544.20;640646;220;24626;-71
2021/05/10 04:48:16;;;;;;;1.80;1.70;;;12.70;1.40;;;14.50;69.17;94547.94;640417;220;24528;-71
2021/05/10 04:50:45;;;;;;;2.30;1.80;;;12.70;1.40;;;14.59;68.60;94549.74;640549;220;24550;-70
2021/05/10 04:53:14;;;;;;;2.00;1.80;;;12.70;1.40;;;14.62;69.63;94551.34;640351;221;24512;-71
2021/05/10 04:55:43;;;;;;;3.57;2.07;;;12.80;1.40;;;14.76;68.36;94550.36;635521;221;32133;-71
2021/05/10 04:58:13;;;;;;;2.30;1.90;;;12.80;1.40;;;14.82;66.99;94558.84;640239;221;24517;-71
2021/05/10 05:00:42;;;;;;;4.33;2.10;;;13.00;1.40;;;14.89;65.78;94564.11;639987;221;24538;-71
2021/05/10 05:03:11;;;;;;;3.53;1.40;;;13.20;1.40;;;15.00;64.54;94568.09;634584;221;31782;-71
2021/05/10 05:05:40;;;;;;;4.03;1.80;;;13.40;1.40;;;15.13;63.98;94570.66;639933;220;24493;-71
2021/05/10 05:08:09;;;;;;;2.33;2.13;;;13.50;1.40;;;15.20;65.17;94574.30;638800;220;24610;-70
2021/05/10 05:10:38;;;;;;;1.60;1.30;;;13.50;1.40;;;15.26;65.13;94574.91;635138;221;31747;-70
2021/05/10 05:13:07;;;;;;;2.07;1.70;;;13.40;1.40;;;15.15;66.41;94578.52;639678;221;23581;-71
2021/05/10 05:15:37;;;;;;;1.90;1.70;;;13.70;1.40;;;15.12;69.20;94581.84;639748;221;27736;-70
2021/05/10 05:18:05;;;;;;;2.93;1.80;;;13.70;1.40;;;15.19;70.35;94584.83;629151;221;25747;-71
2021/05/10 05:20:37;;;;;;;1.60;1.50;;;13.80;1.40;;;15.33;66.40;94589.61;628498;224;28827;-71
2021/05/10 05:23:03;;;;;;;1.47;1.37;;;13.90;1.40;;;15.46;66.10;94593.92;640907;221;24536;-71
2021/05/10 05:25:32;;;;;;;1.83;1.47;;;14.10;1.40;;;15.63;66.32;94596.55;656252;215;24460;-71
2021/05/10 05:28:01;;;;;;;4.70;1.80;;;14.20;1.40;;;15.67;67.66;94596.83;635223;225;25605;-71
2021/05/10 05:35:55;;;;;;;3.10;1.40;;;14.90;1.40;;;16.43;61.86;94600.47;644615;216;31662;-71
2021/05/10 05:38:26;;;;;;;4.57;1.67;;;15.20;1.40;;;16.74;61.22;94602.23;639492;221;22528;-71
2021/05/10 05:40:54;;;;;;;2.17;1.80;;;15.50;1.40;;;16.99;60.84;94598.53;642019;221;23538;-71
2021/05/10 05:43:23;;;;;;;4.70;1.90;;;15.60;1.40;;;17.24;59.83;94597.59;640679;220;28817;-71
2021/05/10 05:45:52;;;;;;;1.70;1.60;;;15.80;1.40;;;17.47;61.06;94601.38;639497;221;23508;-71
2021/05/10 05:48:21;;;;;;;1.93;1.67;;;15.90;1.40;;;17.63;60.12;94604.92;641238;221;23581;-71
2021/05/10 05:50:50;;;;;;;1.37;1.30;;;16.20;1.40;;;17.82;62.72;94604.02;637648;221;27096;-71
2021/05/10 05:53:19;;;;;;;2.80;1.60;;;16.30;1.40;;;18.02;60.69;94601.73;638872;221;23540;-72
2021/05/10 05:55:48;;;;;;;1.80;1.30;;;16.60;1.40;;;18.27;61.08;94604.11;635251;220;32364;-71
2021/05/10 05:58:18;;;;;;;2.87;1.83;;;16.80;1.40;;;18.45;62.35;94605.36;640688;221;23524;-72
2021/05/10 06:00:46;;;;;;;2.28;1.50;;;16.80;1.40;;;18.74;61.92;94612.66;634767;220;31812;-71
2021/05/10 06:03:16;;;;;;;1.80;1.70;;;16.90;1.40;;;18.96;61.82;94607.27;654661;216;26691;-71
2021/05/10 06:05:44;;;;;;;1.80;1.70;;;17.10;1.40;;;19.15;63.66;94605.81;655195;216;24487;-71
2021/05/10 06:08:15;;;;;;;2.73;1.73;;;17.20;1.40;;;19.50;62.63;94606.28;646957;220;25626;-72
2021/05/10 06:10:46;;;;;;;2.03;1.93;;;17.40;1.40;;;19.61;55.28;94607.48;642678;220;24642;-72
2021/05/10 06:13:13;;;;;;;2.50;1.77;;;17.80;1.40;;;19.83;54.03;94607.17;668648;211;24460;-72
2021/05/10 06:15:43;;;;;;;2.10;1.20;;;18.40;1.40;;;20.00;51.51;94611.68;654897;216;23498;-72
2021/05/10 06:18:12;;;;;;;2.10;1.33;;;18.60;1.40;;;20.04;52.59;94611.67;654719;216;28804;-71
2021/05/10 06:20:41;;;;;;;6.27;2.13;;;18.60;1.40;;;20.11;50.71;94614.88;669062;211;23437;-72
2021/05/10 06:23:10;;;;;;;2.60;1.60;;;18.80;1.40;;;20.33;50.22;94608.95;667777;211;23450;-72
2021/05/10 06:25:39;;;;;;;3.60;1.80;;;18.90;1.40;;;20.38;51.85;94612.87;651694;216;27868;-71
2021/05/10 06:28:08;;;;;;;2.80;1.80;;;18.90;1.40;;;20.65;49.44;94610.52;654362;216;23912;-72
2021/05/10 06:30:37;;;;;;;2.77;1.40;;;19.10;1.40;;;20.95;46.88;94611.41;668730;211;23442;-72
2021/05/10 06:35:51;;;;;;;2.20;1.20;;;20.00;1.40;;;21.44;46.50;94609.08;645838;216;31576;-71
2021/05/10 06:38:20;;;;;;;1.77;1.67;;;20.10;1.40;;;21.68;46.03;94605.39;640899;220;23537;-70
2021/05/10 06:40:49;;;;;;;3.13;1.70;;;20.20;1.40;;;21.82;45.23;94609.06;640322;220;23630;-71
2021/05/10 06:43:18;;;;;;;3.57;1.47;;;20.40;1.40;;;22.14;45.07;94611.02;641272;221;23585;-70
2021/05/10 06:45:47;;;;;;;1.60;1.30;;;20.70;1.40;;;22.33;44.21;94619.14;640577;221;24529;-70
2021/05/10 06:48:28;;;;;;;1.73;1.10;;;20.90;1.40;;;22.42;43.57;94618.78;640190;221;23710;-70
2021/05/10 06:50:57;;;;;;;1.37;1.27;;;21.00;1.40;;;22.63;42.95;94623.69;642064;220;23576;-70
2021/05/10 06:53:26;;;;;;;1.40;1.30;;;21.20;1.40;;;22.73;41.93;94628.09;641398;220;26859;-70
2021/05/10 06:55:55;;;;;;;1.47;1.37;;;21.30;1.40;;;22.88;42.46;94625.42;639821;220;24540;-70
2021/05/10 06:58:24;;;;;;;1.40;1.20;;;21.40;1.40;;;23.18;43.58;94634.63;653404;217;24513;-70
2021/05/10 07:00:53;;;;;;;1.98;1.10;;;21.40;1.40;;;23.32;43.56;94641.88;661998;211;31381;-70
2021/05/10 07:03:22;;;;;;;1.60;1.50;;;21.60;1.40;;;23.23;44.19;94648.81;670700;211;31263;-70
2021/05/10 07:05:51;;;;;;;2.80;1.53;;;21.50;1.40;;;23.07;43.45;94650.13;666814;211;27645;-71
2021/05/10 07:08:20;;;;;;;3.23;1.80;;;21.40;1.40;;;22.81;43.62;94649.23;669439;211;23433;-72
2021/05/10 07:10:49;;;;;;;2.30;1.20;;;21.30;1.40;;;22.62;43.78;94641.59;641547;220;24325;-72
2021/05/10 07:13:20;;;;;;;1.70;1.33;;;21.20;1.40;;;22.51;44.18;94638.61;652874;217;24513;-72
2021/05/10 07:15:47;;;;;;;1.90;1.30;;;21.20;1.40;;;22.48;43.94;94646.20;645570;217;34533;-72
2021/05/10 07:18:18;;;;;;;1.97;1.83;;;21.10;1.40;;;22.49;44.51;94665.83;641652;220;22492;-72
2021/05/10 07:20:46;;;;;;;1.63;1.53;;;21.30;1.40;;;22.53;45.82;94661.07;655689;216;29812;-72
2021/05/10 07:23:15;;;;;;;1.45;1.35;;;21.30;1.40;;;22.58;43.89;94658.52;650108;216;31548;-72
2021/05/10 07:25:45;;;;;;;2.30;1.97;;;21.50;1.40;;;22.73;43.92;94655.39;656733;215;23465;-71
2021/05/10 07:28:14;;;;;;;1.63;1.37;;;21.60;1.40;;;22.94;42.50;94650.69;654771;215;24039;-72
2021/05/10 07:30:43;;;;;;;1.52;1.10;;;21.80;1.40;;;23.07;40.37;94654.31;637165;220;31763;-72
2021/05/10 07:35:51;;;;;;;2.12;1.00;;;22.10;1.40;;;23.33;40.94;94644.67;645951;212;31641;-70
2021/05/10 07:38:20;;;;;;;1.40;1.30;;;22.30;1.40;;;23.46;41.47;94638.28;640921;220;22504;-71
2021/05/10 07:40:49;;;;;;;3.70;1.27;;;22.30;1.40;;;23.69;39.33;94631.84;656471;215;24512;-70
2021/05/10 07:43:18;;;;;;;1.23;1.13;;;22.60;1.40;;;23.87;39.52;94629.08;649872;219;24495;-70
2021/05/10 07:45:47;;;;;;;1.70;1.30;;;22.70;1.40;;;24.10;38.40;94628.62;648383;219;23493;-71
2021/05/10 07:48:16;;;;;;;3.45;1.37;;;23.10;1.40;;;24.33;39.26;94628.33;646947;218;31664;-70
2021/05/10 07:50:45;;;;;;;3.37;1.43;;;23.20;1.40;;;24.33;37.90;94617.36;670462;211;27743;-71
2021/05/10 07:53:15;;;;;;;1.83;1.50;;;23.20;1.40;;;24.54;36.89;94615.50;669857;211;23446;-72
2021/05/10 07:55:43;;;;;;;1.70;1.30;;;23.50;1.40;;;24.58;35.96;94616.55;669587;211;24457;-71
2021/05/10 07:58:12;;;;;;;2.50;1.43;;;23.50;1.40;;;24.68;36.19;94616.73;669622;211;24466;-70
2021/05/10 08:00:43;;;;;;;1.27;1.17;;;23.60;1.40;;;24.74;36.92;94621.33;669233;211;23513;-70
2021/05/10 08:03:13;;;;;;;1.77;1.13;;;23.60;1.40;;;24.85;35.53;94615.03;669938;211;24444;-71
2021/05/10 08:05:40;;;;;;;1.93;1.50;;;23.80;1.40;;;25.04;36.16;94606.88;642165;220;23565;-71
2021/05/10 08:08:09;;;;;;;1.40;1.10;;;23.90;1.40;;;25.16;36.32;94599.94;664640;211;31441;-70
2021/05/10 08:10:38;;;;;;;2.00;1.00;;;24.00;1.40;;;25.23;34.84;94594.47;663380;211;31375;-71
2021/05/10 08:13:07;;;;;;;2.23;1.33;;;24.00;1.40;;;25.39;34.20;94585.93;669707;211;22436;-71
2021/05/10 08:15:36;;;;;;;1.43;1.13;;;24.20;1.40;;;25.71;34.73;94587.70;669019;211;23462;-71
2021/05/10 08:18:05;;;;;;;2.40;0.98;;;24.50;1.40;;;25.56;33.72;94585.56;651928;211;31524;-71
2021/05/10 08:20:35;;;;;;;1.50;1.40;;;24.40;1.40;;;25.73;34.58;94587.88;654238;215;26799;-72
2021/05/10 08:23:04;;;;;;;2.60;1.20;;;24.60;1.40;;;25.98;33.19;94580.48;655643;216;23620;-72
2021/05/10 08:25:33;;;;;;;4.00;1.33;;;24.90;1.40;;;25.97;32.60;94581.55;655811;215;23476;-72
2021/05/10 08:28:02;;;;;;;4.63;1.10;;;24.80;1.40;;;26.18;32.48;94589.12;629286;224;24599;-72
2021/05/10 08:30:31;;;;;;;6.70;1.20;;;24.80;1.40;;;26.30;33.87;94592.95;655314;216;23473;-70
2021/05/10 08:33:01;;;;;;;3.40;1.05;;;24.90;1.40;;;26.43;33.37;94599.19;629878;224;31900;-70
2021/05/10 08:36:00;;;;;;;3.03;1.10;;;24.90;1.40;;;26.27;32.34;94599.76;646167;216;42170;-72
2021/05/10 08:38:29;;;;;;;2.00;1.00;;;24.90;1.40;;;26.40;32.36;94603.58;641493;220;23675;-71
2021/05/10 08:40:58;;;;;;;3.30;1.60;;;25.20;1.40;;;26.64;32.59;94595.87;641696;220;24550;-72
2021/05/10 08:43:27;;;;;;;2.00;1.30;;;25.40;1.40;;;26.90;31.47;94595.87;641406;221;24530;-72
2021/05/10 08:45:57;;;;;;;1.43;1.17;;;25.70;1.40;;;27.10;31.63;94595.09;639383;221;23525;-71
2021/05/10 08:48:25;;;;;;;3.40;1.40;;;25.70;1.40;;;-143.44;100.00;122422.95;651742;216;31630;-72
2021/05/10 08:50:54;;;;;;;2.58;1.15;;;25.90;1.40;;;-143.44;100.00;122422.95;636683;220;32342;-72
2021/05/10 08:55:57;;;;;;;2.00;1.00;;;25.90;1.40;;;;;;645865;216;42164;-72
2021/05/10 08:58:25;;;;;;;2.30;1.30;;;25.60;1.40;;;;;;642453;221;22479;-71
2021/05/10 09:00:53;;;;;;;6.07;1.73;;;25.90;1.40;;;;;;631067;221;23600;-72
2021/05/10 09:03:21;;;;;;;1.70;1.15;;;26.00;1.40;;;;;;624439;225;31852;-71
2021/05/10 09:05:49;;;;;;;1.97;1.40;;;26.30;1.40;;;;;;630355;224;23726;-72
2021/05/10 09:08:18;;;;;;;1.07;0.97;;;26.60;1.40;;;;;;631401;225;23598;-72
2021/05/10 09:10:57;;;;;;;2.03;1.63;;;26.70;1.40;;;;;;644613;220;23543;-72
2021/05/10 09:13:46;;;;;;;1.67;1.53;;;27.60;1.40;;;;;;634222;224;23600;-72
2021/05/10 09:16:14;;;;;;;4.03;1.20;;;27.80;1.40;;;;;;628154;225;24680;-72
2021/05/10 09:18:50;;;;;;;1.80;1.47;;;30.10;1.40;;;;;;655034;215;24846;-72
2021/05/10 09:21:18;;;;;;;2.80;1.00;;;30.50;1.40;;;;;;651338;215;31629;-72
2021/05/10 09:23:46;;;;;;;1.60;1.13;;;29.80;1.40;;;;;;655038;215;25630;-72
2021/05/10 09:26:15;;;;;;;2.20;1.30;;;30.30;1.40;;;;;;641878;220;23485;-72
2021/05/10 09:28:43;;;;;;;3.83;1.20;;;30.10;1.40;;;;;;644266;220;25594;-72
2021/05/10 09:31:11;;;;;;;2.40;1.40;;;30.90;1.40;;;;;;628476;225;23685;-73
2021/05/10 09:36:04;;;;;;;2.20;1.10;;;30.20;1.40;;;32.93;24.95;94544.37;646329;212;31586;-72
2021/05/10 09:38:30;;;;;;;3.00;1.23;;;30.70;1.40;;;33.73;24.18;94554.02;641787;220;28825;-71
2021/05/10 09:41:01;;;;;;;2.63;1.00;;;31.10;1.40;;;33.36;23.80;94562.55;641567;220;23537;-71
2021/05/10 09:43:34;;;;;;;2.73;1.17;;;31.10;1.40;;;36.04;22.21;94562.60;641303;220;28856;-72
2021/05/10 09:46:18;;;;;;;2.90;1.10;;;33.10;1.40;;;35.17;21.61;94571.23;639505;220;26924;-71
2021/05/10 09:48:47;;;;;;;1.90;1.17;;;31.60;1.40;;;36.26;22.81;94567.30;639647;221;22658;-72
2021/05/10 09:51:16;;;;;;;1.30;1.20;;;33.10;1.40;;;36.07;24.26;94568.41;639393;221;32080;-72
2021/05/10 09:53:48;;;;;;;1.80;1.20;;;32.80;1.40;;;36.38;23.32;94566.66;645010;220;22488;-73
2021/05/10 09:56:31;;;;;;;1.83;1.12;;;33.20;1.40;;;36.02;21.80;94559.06;662491;211;31649;-73
2021/05/10 09:59:01;;;;;;;2.00;1.07;;;32.10;1.40;;;34.07;22.20;94561.76;668856;211;22410;-73
2021/05/10 10:01:38;;;;;;;1.63;1.20;;;30.50;1.40;;;33.37;23.18;94560.41;668041;211;22508;-73
2021/05/10 10:04:07;;;;;;;1.53;1.20;;;30.30;1.40;;;33.89;25.05;94561.96;669035;211;22413;-73
2021/05/10 10:06:36;;;;;;;1.90;1.10;;;30.70;1.40;;;34.09;23.42;94559.27;669742;211;22476;-72
2021/05/10 10:09:05;;;;;;;1.60;0.90;;;31.10;1.40;;;37.06;22.11;94555.36;669816;211;22455;-73
2021/05/10 10:11:34;;;;;;;1.75;0.90;;;33.10;1.40;;;36.84;21.87;94560.20;662842;211;31546;-73
2021/05/10 10:14:04;;;;;;;1.45;0.93;;;32.90;1.40;;;34.78;21.74;94562.00;648136;216;42375;-73
2021/05/10 10:16:34;;;;;;;2.27;0.83;;;32.00;1.40;;;33.69;21.80;94563.27;643042;220;22474;-73
2021/05/10 10:21:29;;;;;;;2.15;1.27;;;30.70;1.40;;;34.39;22.88;94556.64;646095;216;31630;-72
2021/05/10 10:24:02;;;;;;;1.63;1.20;;;30.50;1.40;;;35.62;22.21;94552.89;641073;220;22509;-73
2021/05/10 10:26:30;;;;;;;2.87;1.20;;;31.70;1.40;;;34.22;23.07;94555.59;639984;221;22487;-72
2021/05/10 10:28:59;;;;;;;4.60;1.30;;;30.70;1.40;;;34.14;22.66;94559.34;639893;221;22524;-72
2021/05/10 10:31:29;;;;;;;1.90;1.20;;;31.30;1.40;;;34.36;22.97;94550.45;640902;221;22481;-72
2021/05/10 10:35:57;;;;;;;2.03;1.30;;;30.80;1.40;;;34.63;23.18;94555.55;646823;212;31619;-71
2021/05/10 10:38:29;;;;;;;1.10;0.83;;;31.10;1.40;;;36.17;21.23;94556.59;641854;220;22580;-72
2021/05/10 10:43:47;;;;;;;1.52;0.90;;;30.80;1.40;;;33.97;23.88;94571.78;646343;216;31604;-72
2021/05/10 10:46:19;;;;;;;1.87;1.30;;;31.40;1.40;;;34.95;22.73;94581.30;641534;220;22546;-71
2021/05/10 10:48:48;;;;;;;1.63;1.27;;;32.40;1.40;;;34.69;21.90;94579.66;641099;219;23534;-72
2021/05/10 10:51:17;;;;;;;3.20;1.20;;;31.60;1.40;;;34.80;23.93;94581.64;642976;219;22549;-72
2021/05/10 10:53:56;;;;;;;1.45;1.15;;;31.80;1.40;;;35.70;22.79;94578.75;662868;211;31517;-72
2021/05/10 10:56:53;;;;;;;1.20;0.80;;;32.00;1.40;;;34.74;23.14;94577.70;642245;220;22510;-72
2021/05/10 10:59:35;;;;;;;1.90;1.10;;;31.50;1.40;;;35.24;22.52;94579.85;645429;216;32283;-73
2021/05/10 11:02:21;;;;;;;2.73;1.20;;;31.30;1.40;;;35.16;21.14;94575.91;629430;224;22792;-73
2021/05/10 11:07:46;;;;;;;2.00;0.80;;;30.50;1.40;;;34.14;22.14;94573.91;647330;216;31790;-72
2021/05/10 11:10:38;;;;;;;2.03;1.50;;;30.90;1.40;;;35.16;21.34;94568.28;656695;215;22531;-72
2021/05/10 11:13:37;;;;;;;2.42;1.02;;;32.60;1.40;;;35.28;20.59;94562.56;620734;225;31958;-72
2021/05/10 11:16:18;;;;;;;2.33;1.50;;;31.50;1.40;;;37.54;20.55;94559.00;615174;230;22634;-72
2021/05/10 11:18:55;;;;;;;1.37;0.80;;;33.30;1.40;;;35.68;20.63;94556.25;615688;229;32044;-73
2021/05/10 11:21:37;;;;;;;3.10;1.17;;;30.70;1.40;;;34.92;21.78;94556.83;619938;230;26984;-74
2021/05/10 11:24:10;;;;;;;5.07;1.10;;;30.90;1.40;;;35.84;21.96;94555.28;621078;230;29019;-71
2021/05/10 11:26:52;;;;;;;5.90;1.20;;;32.30;1.40;;;35.56;20.43;94563.16;621307;230;23156;-71
2021/05/10 11:29:42;;;;;;;1.60;0.70;;;31.70;1.40;;;35.61;19.94;94558.56;621336;229;23837;-72
2021/05/10 11:32:25;;;;;;;2.20;0.90;;;31.30;1.40;;;36.23;19.92;94555.57;620104;230;22654;-71
2021/05/10 11:35:53;;;;;;;2.50;1.10;;;32.40;1.40;;;38.35;19.95;94548.35;645521;212;31713;-72
2021/05/10 11:38:27;;;;;;;3.47;1.10;;;32.90;1.40;;;38.79;16.73;94548.64;641344;220;22826;-72
2021/05/10 11:40:52;;;;;;;1.23;0.90;;;33.80;1.40;;;40.94;17.54;94539.09;654825;216;22482;-74
2021/05/10 11:43:21;;;;;;;1.57;1.47;;;34.80;1.40;;;39.28;18.81;94540.31;670061;211;23462;-73
2021/05/10 11:45:51;;;;;;;1.90;0.97;;;33.20;1.40;;;37.81;20.22;94535.34;669609;211;22397;-72
2021/05/10 11:48:36;;;;;;;2.50;1.00;;;32.10;1.40;;;36.63;20.36;94533.47;669630;211;22432;-72
2021/05/10 11:51:18;;;;;;;4.00;1.10;;;32.10;1.40;;;36.68;22.51;94527.27;670049;211;26765;-73